CXW Airport (Cantrell Fld) Information

FAA: CXW - ICAO: KCXW

CXW Airport Location

State Arkansas
County Faulkner
City Conway
CXW Airport is 7 miles southwest of Conway, AR.
Latitude 35-01-11.6000N
Longitude 092-33-18.4000W
Elevation 276ft

KCXW Airport METARs

METAR KCXW 301735Z AUTO VRB04KT 9SM CLR 19/08 A3011 RMK A01
Altimeter 30.11"
Temperature 19.0°C (66.2°F)
Wind 0° at 4KT
Clouds Skies are clear.
Visibility 9.0mi
Time observed: 2021-11-30T17:35:00Z

CXW Airport Details

Status Operational
Activation August 2014
Ownership Public
Usage Public
Chart MEMPHIS
ATC on-site No
Beacon schedule sunset-sunrise
Beacon color clear green

CXW Airport Contacts

Owner CITY OF CONWAY
Owner address 1111 MAIN STREET, CONWAY, AR 72032
Owner phone 501-450-6110
Manager REX POE
Manager address 234 ROOSTER RD, CONWAY, AR 72032
Manager phone 501-450-8428

CXW Airport (Cantrell Fld) Radio Frequencies

CXW (Airport) Radio Frequencies

UNICOM 123.05
Common traffic advisory frequency (CTAF) 123.05